sensor_id;sensor_type;location;lat;lon;timestamp;P1;durP1;ratioP1;P2;durP2;ratioP2
29352;SDS011;16344;50.364;8.944;2023-04-07T00:01:28;39.75;;;22.45;;
29352;SDS011;16344;50.364;8.944;2023-04-07T00:03:53;37.10;;;20.90;;
29352;SDS011;16344;50.364;8.944;2023-04-07T00:06:19;41.75;;;21.85;;
29352;SDS011;16344;50.364;8.944;2023-04-07T00:08:45;38.47;;;21.65;;
29352;SDS011;16344;50.364;8.944;2023-04-07T00:11:10;38.58;;;22.80;;
29352;SDS011;16344;50.364;8.944;2023-04-07T00:13:36;40.92;;;19.95;;
29352;SDS011;16344;50.364;8.944;2023-04-07T00:16:01;35.40;;;21.10;;
29352;SDS011;16344;50.364;8.944;2023-04-07T00:18:27;41.28;;;23.33;;
29352;SDS011;16344;50.364;8.944;2023-04-07T00:20:52;33.47;;;20.05;;
29352;SDS011;16344;50.364;8.944;2023-04-07T00:23:18;36.90;;;20.92;;
29352;SDS011;16344;50.364;8.944;2023-04-07T00:25:43;36.90;;;21.25;;
29352;SDS011;16344;50.364;8.944;2023-04-07T00:28:09;38.83;;;21.95;;
29352;SDS011;16344;50.364;8.944;2023-04-07T00:30:34;41.67;;;21.30;;
29352;SDS011;16344;50.364;8.944;2023-04-07T00:33:00;37.35;;;20.02;;
29352;SDS011;16344;50.364;8.944;2023-04-07T00:35:25;34.53;;;19.88;;
29352;SDS011;16344;50.364;8.944;2023-04-07T00:37:51;38.30;;;20.10;;
29352;SDS011;16344;50.364;8.944;2023-04-07T00:40:17;35.63;;;20.23;;
29352;SDS011;16344;50.364;8.944;2023-04-07T00:42:42;34.50;;;19.42;;
29352;SDS011;16344;50.364;8.944;2023-04-07T00:45:08;39.25;;;19.92;;
29352;SDS011;16344;50.364;8.944;2023-04-07T00:47:35;35.00;;;18.58;;
29352;SDS011;16344;50.364;8.944;2023-04-07T00:50:02;39.38;;;20.77;;
29352;SDS011;16344;50.364;8.944;2023-04-07T00:52:28;36.60;;;19.33;;
29352;SDS011;16344;50.364;8.944;2023-04-07T00:54:56;36.72;;;21.17;;
29352;SDS011;16344;50.364;8.944;2023-04-07T00:57:23;36.25;;;20.25;;
29352;SDS011;16344;50.364;8.944;2023-04-07T00:59:49;34.30;;;19.85;;
29352;SDS011;16344;50.364;8.944;2023-04-07T01:02:17;44.15;;;20.85;;
29352;SDS011;16344;50.364;8.944;2023-04-07T01:04:58;34.83;;;20.30;;
29352;SDS011;16344;50.364;8.944;2023-04-07T01:07:31;38.55;;;20.35;;
29352;SDS011;16344;50.364;8.944;2023-04-07T01:10:18;36.65;;;18.45;;
29352;SDS011;16344;50.364;8.944;2023-04-07T01:12:51;36.08;;;20.00;;
29352;SDS011;16344;50.364;8.944;2023-04-07T01:15:25;48.95;;;20.60;;
29352;SDS011;16344;50.364;8.944;2023-04-07T01:18:05;34.05;;;20.58;;
29352;SDS011;16344;50.364;8.944;2023-04-07T01:20:35;38.22;;;21.25;;
29352;SDS011;16344;50.364;8.944;2023-04-07T01:23:03;37.45;;;21.05;;
29352;SDS011;16344;50.364;8.944;2023-04-07T01:25:37;31.95;;;18.80;;
29352;SDS011;16344;50.364;8.944;2023-04-07T01:31:27;34.42;;;18.50;;
29352;SDS011;16344;50.364;8.944;2023-04-07T01:33:54;31.52;;;19.75;;
29352;SDS011;16344;50.364;8.944;2023-04-07T01:36:22;35.03;;;19.92;;
29352;SDS011;16344;50.364;8.944;2023-04-07T01:38:52;41.15;;;18.80;;
29352;SDS011;16344;50.364;8.944;2023-04-07T01:41:17;38.65;;;21.48;;
29352;SDS011;16344;50.364;8.944;2023-04-07T01:43:43;39.80;;;20.55;;
29352;SDS011;16344;50.364;8.944;2023-04-07T01:46:11;33.78;;;18.95;;
29352;SDS011;16344;50.364;8.944;2023-04-07T01:48:37;42.67;;;19.55;;
29352;SDS011;16344;50.364;8.944;2023-04-07T01:51:05;38.50;;;18.88;;
29352;SDS011;16344;50.364;8.944;2023-04-07T01:53:32;31.42;;;19.23;;
29352;SDS011;16344;50.364;8.944;2023-04-07T01:56:01;36.88;;;19.33;;
29352;SDS011;16344;50.364;8.944;2023-04-07T01:58:27;34.80;;;19.13;;
29352;SDS011;16344;50.364;8.944;2023-04-07T02:00:53;38.50;;;19.33;;
29352;SDS011;16344;50.364;8.944;2023-04-07T02:03:22;38.35;;;19.60;;
29352;SDS011;16344;50.364;8.944;2023-04-07T02:05:56;35.33;;;19.60;;
29352;SDS011;16344;50.364;8.944;2023-04-07T02:08:27;33.97;;;20.15;;
29352;SDS011;16344;50.364;8.944;2023-04-07T02:10:54;39.30;;;21.52;;
29352;SDS011;16344;50.364;8.944;2023-04-07T02:13:21;38.92;;;21.77;;
29352;SDS011;16344;50.364;8.944;2023-04-07T02:15:48;40.13;;;20.95;;
29352;SDS011;16344;50.364;8.944;2023-04-07T02:18:14;39.55;;;21.00;;
29352;SDS011;16344;50.364;8.944;2023-04-07T02:20:42;36.67;;;19.25;;
29352;SDS011;16344;50.364;8.944;2023-04-07T02:23:10;38.25;;;18.48;;
29352;SDS011;16344;50.364;8.944;2023-04-07T02:25:36;38.28;;;19.65;;
29352;SDS011;16344;50.364;8.944;2023-04-07T02:28:02;35.00;;;19.85;;
29352;SDS011;16344;50.364;8.944;2023-04-07T02:30:28;40.88;;;21.65;;
29352;SDS011;16344;50.364;8.944;2023-04-07T02:32:54;42.35;;;22.77;;
29352;SDS011;16344;50.364;8.944;2023-04-07T02:35:20;40.25;;;21.70;;
29352;SDS011;16344;50.364;8.944;2023-04-07T02:37:46;39.15;;;21.15;;
29352;SDS011;16344;50.364;8.944;2023-04-07T02:40:12;43.13;;;23.10;;
29352;SDS011;16344;50.364;8.944;2023-04-07T02:42:37;38.97;;;21.42;;
29352;SDS011;16344;50.364;8.944;2023-04-07T02:45:04;42.22;;;20.70;;
29352;SDS011;16344;50.364;8.944;2023-04-07T02:47:30;47.47;;;21.15;;
29352;SDS011;16344;50.364;8.944;2023-04-07T02:49:56;40.67;;;22.65;;
29352;SDS011;16344;50.364;8.944;2023-04-07T02:52:22;40.90;;;20.23;;
29352;SDS011;16344;50.364;8.944;2023-04-07T02:54:47;42.97;;;20.92;;
29352;SDS011;16344;50.364;8.944;2023-04-07T02:57:13;41.05;;;20.50;;
29352;SDS011;16344;50.364;8.944;2023-04-07T02:59:39;40.97;;;20.77;;
29352;SDS011;16344;50.364;8.944;2023-04-07T03:02:05;36.22;;;20.05;;
29352;SDS011;16344;50.364;8.944;2023-04-07T03:04:30;35.92;;;19.35;;
29352;SDS011;16344;50.364;8.944;2023-04-07T03:06:56;32.70;;;18.90;;
29352;SDS011;16344;50.364;8.944;2023-04-07T03:09:22;38.30;;;19.75;;
29352;SDS011;16344;50.364;8.944;2023-04-07T03:11:48;42.00;;;19.10;;
29352;SDS011;16344;50.364;8.944;2023-04-07T03:14:13;31.27;;;17.60;;
29352;SDS011;16344;50.364;8.944;2023-04-07T03:16:40;34.95;;;18.35;;
29352;SDS011;16344;50.364;8.944;2023-04-07T03:19:05;36.65;;;19.98;;
29352;SDS011;16344;50.364;8.944;2023-04-07T03:21:31;35.53;;;20.48;;
29352;SDS011;16344;50.364;8.944;2023-04-07T03:23:57;39.97;;;21.67;;
29352;SDS011;16344;50.364;8.944;2023-04-07T03:26:22;39.33;;;20.70;;
29352;SDS011;16344;50.364;8.944;2023-04-07T03:28:48;39.40;;;20.38;;
29352;SDS011;16344;50.364;8.944;2023-04-07T03:31:13;33.92;;;18.55;;
29352;SDS011;16344;50.364;8.944;2023-04-07T03:33:39;36.20;;;19.98;;
29352;SDS011;16344;50.364;8.944;2023-04-07T03:36:05;35.30;;;19.45;;
29352;SDS011;16344;50.364;8.944;2023-04-07T03:38:31;31.23;;;18.58;;
29352;SDS011;16344;50.364;8.944;2023-04-07T03:40:56;31.48;;;15.55;;
29352;SDS011;16344;50.364;8.944;2023-04-07T03:43:22;28.30;;;16.60;;
29352;SDS011;16344;50.364;8.944;2023-04-07T03:45:47;31.42;;;17.42;;
29352;SDS011;16344;50.364;8.944;2023-04-07T03:48:13;30.60;;;17.35;;
29352;SDS011;16344;50.364;8.944;2023-04-07T03:50:38;35.60;;;18.45;;
29352;SDS011;16344;50.364;8.944;2023-04-07T03:53:04;36.38;;;19.05;;
29352;SDS011;16344;50.364;8.944;2023-04-07T03:55:30;36.50;;;19.77;;
29352;SDS011;16344;50.364;8.944;2023-04-07T03:57:57;32.85;;;17.83;;
29352;SDS011;16344;50.364;8.944;2023-04-07T04:00:22;31.25;;;17.27;;
29352;SDS011;16344;50.364;8.944;2023-04-07T04:02:48;35.13;;;16.88;;
29352;SDS011;16344;50.364;8.944;2023-04-07T04:05:14;28.55;;;16.92;;
29352;SDS011;16344;50.364;8.944;2023-04-07T04:07:39;33.30;;;17.50;;
29352;SDS011;16344;50.364;8.944;2023-04-07T04:10:05;27.60;;;16.67;;
29352;SDS011;16344;50.364;8.944;2023-04-07T04:12:31;38.13;;;18.00;;
29352;SDS011;16344;50.364;8.944;2023-04-07T04:14:57;30.77;;;17.38;;
29352;SDS011;16344;50.364;8.944;2023-04-07T04:17:22;31.88;;;16.73;;
29352;SDS011;16344;50.364;8.944;2023-04-07T04:19:49;30.55;;;17.13;;
29352;SDS011;16344;50.364;8.944;2023-04-07T04:22:15;31.33;;;17.55;;
29352;SDS011;16344;50.364;8.944;2023-04-07T04:24:40;35.65;;;17.17;;
29352;SDS011;16344;50.364;8.944;2023-04-07T04:27:06;31.00;;;16.58;;
29352;SDS011;16344;50.364;8.944;2023-04-07T04:29:32;29.77;;;15.68;;
29352;SDS011;16344;50.364;8.944;2023-04-07T04:31:58;30.30;;;16.92;;
29352;SDS011;16344;50.364;8.944;2023-04-07T04:34:23;22.88;;;15.18;;
29352;SDS011;16344;50.364;8.944;2023-04-07T04:36:49;31.95;;;17.10;;
29352;SDS011;16344;50.364;8.944;2023-04-07T04:39:14;29.13;;;16.27;;
29352;SDS011;16344;50.364;8.944;2023-04-07T04:41:40;32.03;;;16.25;;
29352;SDS011;16344;50.364;8.944;2023-04-07T04:44:06;28.80;;;17.02;;
29352;SDS011;16344;50.364;8.944;2023-04-07T04:46:31;31.77;;;16.77;;
29352;SDS011;16344;50.364;8.944;2023-04-07T04:48:57;28.55;;;16.13;;
29352;SDS011;16344;50.364;8.944;2023-04-07T04:51:22;37.55;;;18.67;;
29352;SDS011;16344;50.364;8.944;2023-04-07T04:53:48;31.17;;;17.08;;
29352;SDS011;16344;50.364;8.944;2023-04-07T04:56:13;29.73;;;16.85;;
29352;SDS011;16344;50.364;8.944;2023-04-07T04:58:39;30.40;;;16.52;;
29352;SDS011;16344;50.364;8.944;2023-04-07T05:01:10;32.42;;;16.42;;
29352;SDS011;16344;50.364;8.944;2023-04-07T05:03:38;29.98;;;16.58;;
29352;SDS011;16344;50.364;8.944;2023-04-07T05:06:04;26.50;;;14.63;;
29352;SDS011;16344;50.364;8.944;2023-04-07T05:08:30;29.92;;;16.95;;
29352;SDS011;16344;50.364;8.944;2023-04-07T05:10:56;24.90;;;14.88;;
29352;SDS011;16344;50.364;8.944;2023-04-07T05:13:21;27.17;;;15.15;;
29352;SDS011;16344;50.364;8.944;2023-04-07T05:15:47;31.05;;;16.00;;
29352;SDS011;16344;50.364;8.944;2023-04-07T05:18:13;32.80;;;16.23;;
29352;SDS011;16344;50.364;8.944;2023-04-07T05:20:38;28.20;;;14.35;;
29352;SDS011;16344;50.364;8.944;2023-04-07T05:23:04;25.20;;;15.10;;
29352;SDS011;16344;50.364;8.944;2023-04-07T05:25:30;23.08;;;13.85;;
29352;SDS011;16344;50.364;8.944;2023-04-07T05:27:57;26.88;;;13.93;;
29352;SDS011;16344;50.364;8.944;2023-04-07T05:30:23;24.50;;;13.45;;
29352;SDS011;16344;50.364;8.944;2023-04-07T05:32:49;22.80;;;14.35;;
29352;SDS011;16344;50.364;8.944;2023-04-07T05:35:14;28.73;;;14.35;;
29352;SDS011;16344;50.364;8.944;2023-04-07T05:37:40;21.42;;;13.88;;
29352;SDS011;16344;50.364;8.944;2023-04-07T05:40:06;23.83;;;12.93;;
29352;SDS011;16344;50.364;8.944;2023-04-07T05:42:32;21.85;;;13.27;;
29352;SDS011;16344;50.364;8.944;2023-04-07T05:44:58;26.42;;;14.65;;
29352;SDS011;16344;50.364;8.944;2023-04-07T05:47:23;23.98;;;13.85;;
29352;SDS011;16344;50.364;8.944;2023-04-07T05:49:49;23.98;;;14.13;;
29352;SDS011;16344;50.364;8.944;2023-04-07T05:52:14;26.50;;;14.80;;
29352;SDS011;16344;50.364;8.944;2023-04-07T05:54:40;22.48;;;11.48;;
29352;SDS011;16344;50.364;8.944;2023-04-07T05:57:06;19.38;;;11.48;;
29352;SDS011;16344;50.364;8.944;2023-04-07T05:59:32;21.02;;;12.10;;
29352;SDS011;16344;50.364;8.944;2023-04-07T06:01:58;23.88;;;12.95;;
29352;SDS011;16344;50.364;8.944;2023-04-07T06:04:23;19.52;;;12.00;;
29352;SDS011;16344;50.364;8.944;2023-04-07T06:06:49;20.60;;;11.57;;
29352;SDS011;16344;50.364;8.944;2023-04-07T06:09:16;19.95;;;11.88;;
29352;SDS011;16344;50.364;8.944;2023-04-07T06:11:41;20.23;;;10.32;;
29352;SDS011;16344;50.364;8.944;2023-04-07T06:14:07;17.38;;;11.13;;
29352;SDS011;16344;50.364;8.944;2023-04-07T06:16:33;20.10;;;12.18;;
29352;SDS011;16344;50.364;8.944;2023-04-07T06:18:58;19.95;;;12.65;;
29352;SDS011;16344;50.364;8.944;2023-04-07T06:21:24;20.20;;;12.02;;
29352;SDS011;16344;50.364;8.944;2023-04-07T06:23:51;16.70;;;11.20;;
29352;SDS011;16344;50.364;8.944;2023-04-07T06:26:16;48.53;;;21.05;;
29352;SDS011;16344;50.364;8.944;2023-04-07T06:28:42;43.95;;;19.13;;
29352;SDS011;16344;50.364;8.944;2023-04-07T06:31:07;32.63;;;17.67;;
29352;SDS011;16344;50.364;8.944;2023-04-07T06:33:33;21.95;;;13.50;;
29352;SDS011;16344;50.364;8.944;2023-04-07T06:35:59;20.38;;;12.70;;
29352;SDS011;16344;50.364;8.944;2023-04-07T06:38:25;22.15;;;14.27;;
29352;SDS011;16344;50.364;8.944;2023-04-07T06:40:50;21.25;;;14.02;;
29352;SDS011;16344;50.364;8.944;2023-04-07T06:43:16;18.83;;;12.55;;
29352;SDS011;16344;50.364;8.944;2023-04-07T06:45:41;16.33;;;10.60;;
29352;SDS011;16344;50.364;8.944;2023-04-07T06:48:07;17.33;;;11.25;;
29352;SDS011;16344;50.364;8.944;2023-04-07T06:50:34;24.67;;;10.95;;
29352;SDS011;16344;50.364;8.944;2023-04-07T06:53:01;18.67;;;10.63;;
29352;SDS011;16344;50.364;8.944;2023-04-07T06:55:26;19.10;;;11.80;;
29352;SDS011;16344;50.364;8.944;2023-04-07T06:57:52;21.27;;;11.32;;
29352;SDS011;16344;50.364;8.944;2023-04-07T07:00:18;17.30;;;10.32;;
29352;SDS011;16344;50.364;8.944;2023-04-07T07:02:43;17.42;;;10.43;;
29352;SDS011;16344;50.364;8.944;2023-04-07T07:05:09;16.33;;;10.05;;
29352;SDS011;16344;50.364;8.944;2023-04-07T07:07:35;20.50;;;11.00;;
29352;SDS011;16344;50.364;8.944;2023-04-07T07:10:01;19.55;;;11.57;;
29352;SDS011;16344;50.364;8.944;2023-04-07T07:12:27;20.70;;;12.00;;
29352;SDS011;16344;50.364;8.944;2023-04-07T07:14:52;19.42;;;11.00;;
29352;SDS011;16344;50.364;8.944;2023-04-07T07:17:18;20.27;;;12.52;;
29352;SDS011;16344;50.364;8.944;2023-04-07T07:19:43;21.33;;;13.20;;
29352;SDS011;16344;50.364;8.944;2023-04-07T07:22:09;24.35;;;14.10;;
29352;SDS011;16344;50.364;8.944;2023-04-07T07:24:34;28.25;;;15.10;;
29352;SDS011;16344;50.364;8.944;2023-04-07T07:27:00;24.55;;;15.07;;
29352;SDS011;16344;50.364;8.944;2023-04-07T07:29:26;19.85;;;12.13;;
29352;SDS011;16344;50.364;8.944;2023-04-07T07:31:52;28.63;;;14.35;;
29352;SDS011;16344;50.364;8.944;2023-04-07T07:34:17;23.73;;;14.48;;
29352;SDS011;16344;50.364;8.944;2023-04-07T07:36:43;25.33;;;12.88;;
29352;SDS011;16344;50.364;8.944;2023-04-07T07:39:08;32.45;;;14.93;;
29352;SDS011;16344;50.364;8.944;2023-04-07T07:41:35;27.23;;;14.07;;
29352;SDS011;16344;50.364;8.944;2023-04-07T07:44:00;23.75;;;14.68;;
29352;SDS011;16344;50.364;8.944;2023-04-07T07:46:26;23.00;;;11.77;;
29352;SDS011;16344;50.364;8.944;2023-04-07T07:48:51;25.90;;;13.52;;
29352;SDS011;16344;50.364;8.944;2023-04-07T07:51:17;24.92;;;14.13;;
29352;SDS011;16344;50.364;8.944;2023-04-07T07:53:43;23.55;;;13.90;;
29352;SDS011;16344;50.364;8.944;2023-04-07T07:56:09;22.95;;;13.13;;
29352;SDS011;16344;50.364;8.944;2023-04-07T07:58:35;18.73;;;12.02;;
29352;SDS011;16344;50.364;8.944;2023-04-07T08:01:01;25.13;;;12.77;;
29352;SDS011;16344;50.364;8.944;2023-04-07T08:03:26;26.80;;;14.25;;
29352;SDS011;16344;50.364;8.944;2023-04-07T08:05:52;22.70;;;11.85;;
29352;SDS011;16344;50.364;8.944;2023-04-07T08:08:17;19.23;;;12.25;;
29352;SDS011;16344;50.364;8.944;2023-04-07T08:10:43;23.77;;;13.75;;
29352;SDS011;16344;50.364;8.944;2023-04-07T08:13:09;20.27;;;12.52;;
29352;SDS011;16344;50.364;8.944;2023-04-07T08:15:35;23.00;;;13.65;;
29352;SDS011;16344;50.364;8.944;2023-04-07T08:18:00;22.75;;;13.48;;
29352;SDS011;16344;50.364;8.944;2023-04-07T08:20:28;28.52;;;16.00;;
29352;SDS011;16344;50.364;8.944;2023-04-07T08:22:54;22.55;;;14.13;;
29352;SDS011;16344;50.364;8.944;2023-04-07T08:25:20;28.27;;;15.48;;
29352;SDS011;16344;50.364;8.944;2023-04-07T08:27:46;33.40;;;19.10;;
29352;SDS011;16344;50.364;8.944;2023-04-07T08:30:11;29.17;;;16.85;;
29352;SDS011;16344;50.364;8.944;2023-04-07T08:32:38;29.55;;;16.27;;
29352;SDS011;16344;50.364;8.944;2023-04-07T08:35:05;29.73;;;15.80;;
29352;SDS011;16344;50.364;8.944;2023-04-07T08:37:32;28.02;;;16.90;;
29352;SDS011;16344;50.364;8.944;2023-04-07T08:39:58;25.20;;;14.63;;
29352;SDS011;16344;50.364;8.944;2023-04-07T08:42:26;21.05;;;13.32;;
29352;SDS011;16344;50.364;8.944;2023-04-07T08:44:57;27.67;;;16.23;;
29352;SDS011;16344;50.364;8.944;2023-04-07T08:47:29;28.58;;;15.77;;
29352;SDS011;16344;50.364;8.944;2023-04-07T08:49:59;24.75;;;15.65;;
29352;SDS011;16344;50.364;8.944;2023-04-07T08:52:34;23.33;;;13.90;;
29352;SDS011;16344;50.364;8.944;2023-04-07T08:55:13;27.98;;;14.65;;
29352;SDS011;16344;50.364;8.944;2023-04-07T08:57:40;23.02;;;14.38;;
29352;SDS011;16344;50.364;8.944;2023-04-07T09:00:06;24.85;;;14.57;;
29352;SDS011;16344;50.364;8.944;2023-04-07T09:02:33;27.98;;;15.68;;
29352;SDS011;16344;50.364;8.944;2023-04-07T09:05:12;25.30;;;14.95;;
29352;SDS011;16344;50.364;8.944;2023-04-07T09:07:38;29.38;;;16.08;;
29352;SDS011;16344;50.364;8.944;2023-04-07T09:10:04;24.65;;;15.75;;
29352;SDS011;16344;50.364;8.944;2023-04-07T09:12:32;24.65;;;14.20;;
29352;SDS011;16344;50.364;8.944;2023-04-07T09:14:58;24.98;;;15.55;;
29352;SDS011;16344;50.364;8.944;2023-04-07T09:17:27;23.42;;;14.20;;
29352;SDS011;16344;50.364;8.944;2023-04-07T09:19:57;28.55;;;15.02;;
29352;SDS011;16344;50.364;8.944;2023-04-07T09:22:38;23.50;;;13.43;;
29352;SDS011;16344;50.364;8.944;2023-04-07T09:25:10;25.00;;;13.43;;
29352;SDS011;16344;50.364;8.944;2023-04-07T09:27:37;22.58;;;13.20;;
29352;SDS011;16344;50.364;8.944;2023-04-07T09:30:12;23.48;;;13.60;;
29352;SDS011;16344;50.364;8.944;2023-04-07T09:32:39;21.23;;;13.55;;
29352;SDS011;16344;50.364;8.944;2023-04-07T09:35:05;27.13;;;16.08;;
29352;SDS011;16344;50.364;8.944;2023-04-07T09:37:31;26.88;;;15.75;;
29352;SDS011;16344;50.364;8.944;2023-04-07T09:39:57;31.10;;;18.35;;
29352;SDS011;16344;50.364;8.944;2023-04-07T09:42:23;31.02;;;16.92;;
29352;SDS011;16344;50.364;8.944;2023-04-07T09:44:49;39.95;;;23.92;;
29352;SDS011;16344;50.364;8.944;2023-04-07T09:47:15;36.42;;;19.38;;
29352;SDS011;16344;50.364;8.944;2023-04-07T09:49:51;28.42;;;16.10;;
29352;SDS011;16344;50.364;8.944;2023-04-07T09:52:18;30.20;;;17.08;;
29352;SDS011;16344;50.364;8.944;2023-04-07T09:54:47;26.02;;;15.73;;
29352;SDS011;16344;50.364;8.944;2023-04-07T09:57:13;26.73;;;16.17;;
29352;SDS011;16344;50.364;8.944;2023-04-07T09:59:39;23.35;;;14.32;;
29352;SDS011;16344;50.364;8.944;2023-04-07T10:02:06;25.02;;;14.85;;
29352;SDS011;16344;50.364;8.944;2023-04-07T10:04:32;32.78;;;17.15;;
29352;SDS011;16344;50.364;8.944;2023-04-07T10:06:58;25.10;;;14.57;;
29352;SDS011;16344;50.364;8.944;2023-04-07T10:09:27;27.17;;;16.33;;
29352;SDS011;16344;50.364;8.944;2023-04-07T10:11:54;31.55;;;16.13;;
29352;SDS011;16344;50.364;8.944;2023-04-07T10:14:21;22.85;;;13.88;;
29352;SDS011;16344;50.364;8.944;2023-04-07T10:16:49;32.92;;;18.75;;
29352;SDS011;16344;50.364;8.944;2023-04-07T10:19:15;16.88;;;11.65;;
29352;SDS011;16344;50.364;8.944;2023-04-07T10:21:43;32.47;;;16.88;;
29352;SDS011;16344;50.364;8.944;2023-04-07T10:26:50;25.95;;;14.75;;
29352;SDS011;16344;50.364;8.944;2023-04-07T10:29:18;25.70;;;15.70;;
29352;SDS011;16344;50.364;8.944;2023-04-07T10:31:45;19.70;;;12.38;;
29352;SDS011;16344;50.364;8.944;2023-04-07T10:34:11;17.85;;;11.90;;
29352;SDS011;16344;50.364;8.944;2023-04-07T10:37:06;16.73;;;10.70;;
29352;SDS011;16344;50.364;8.944;2023-04-07T10:39:33;15.25;;;9.90;;
29352;SDS011;16344;50.364;8.944;2023-04-07T10:41:59;28.00;;;13.70;;
29352;SDS011;16344;50.364;8.944;2023-04-07T10:44:43;15.95;;;10.15;;
29352;SDS011;16344;50.364;8.944;2023-04-07T10:47:11;14.38;;;9.15;;
29352;SDS011;16344;50.364;8.944;2023-04-07T10:49:38;20.20;;;11.45;;
29352;SDS011;16344;50.364;8.944;2023-04-07T10:54:39;16.60;;;10.93;;
29352;SDS011;16344;50.364;8.944;2023-04-07T10:59:32;12.73;;;8.45;;
29352;SDS011;16344;50.364;8.944;2023-04-07T11:04:39;15.60;;;9.98;;
29352;SDS011;16344;50.364;8.944;2023-04-07T11:07:09;11.90;;;8.10;;
29352;SDS011;16344;50.364;8.944;2023-04-07T11:09:39;12.45;;;8.73;;
29352;SDS011;16344;50.364;8.944;2023-04-07T11:12:05;13.18;;;8.73;;
29352;SDS011;16344;50.364;8.944;2023-04-07T11:14:32;16.25;;;8.60;;
29352;SDS011;16344;50.364;8.944;2023-04-07T11:17:01;12.30;;;7.22;;
29352;SDS011;16344;50.364;8.944;2023-04-07T11:19:27;13.00;;;8.32;;
29352;SDS011;16344;50.364;8.944;2023-04-07T11:22:12;10.90;;;7.85;;
29352;SDS011;16344;50.364;8.944;2023-04-07T11:24:39;11.43;;;7.88;;
29352;SDS011;16344;50.364;8.944;2023-04-07T11:27:04;10.65;;;7.25;;
29352;SDS011;16344;50.364;8.944;2023-04-07T11:29:31;15.77;;;8.40;;
29352;SDS011;16344;50.364;8.944;2023-04-07T11:31:58;13.70;;;8.77;;
29352;SDS011;16344;50.364;8.944;2023-04-07T11:34:31;13.43;;;8.90;;
29352;SDS011;16344;50.364;8.944;2023-04-07T11:36:58;13.23;;;8.63;;
29352;SDS011;16344;50.364;8.944;2023-04-07T11:39:43;11.70;;;8.10;;
29352;SDS011;16344;50.364;8.944;2023-04-07T11:42:11;11.75;;;8.10;;
29352;SDS011;16344;50.364;8.944;2023-04-07T11:44:44;14.48;;;9.20;;
29352;SDS011;16344;50.364;8.944;2023-04-07T11:47:10;16.70;;;10.35;;
29352;SDS011;16344;50.364;8.944;2023-04-07T11:49:35;26.05;;;12.77;;
29352;SDS011;16344;50.364;8.944;2023-04-07T11:52:09;15.70;;;9.40;;
29352;SDS011;16344;50.364;8.944;2023-04-07T11:54:39;14.70;;;9.40;;
29352;SDS011;16344;50.364;8.944;2023-04-07T11:57:10;14.20;;;7.15;;
29352;SDS011;16344;50.364;8.944;2023-04-07T11:59:36;12.77;;;7.45;;
29352;SDS011;16344;50.364;8.944;2023-04-07T12:02:02;12.43;;;8.40;;
29352;SDS011;16344;50.364;8.944;2023-04-07T12:04:27;10.90;;;7.43;;
29352;SDS011;16344;50.364;8.944;2023-04-07T12:06:53;11.73;;;6.75;;
29352;SDS011;16344;50.364;8.944;2023-04-07T12:09:26;14.55;;;7.90;;
29352;SDS011;16344;50.364;8.944;2023-04-07T12:11:56;9.57;;;7.00;;
29352;SDS011;16344;50.364;8.944;2023-04-07T12:14:23;12.25;;;8.85;;
29352;SDS011;16344;50.364;8.944;2023-04-07T12:16:49;9.70;;;7.15;;
29352;SDS011;16344;50.364;8.944;2023-04-07T12:19:15;8.68;;;6.70;;
29352;SDS011;16344;50.364;8.944;2023-04-07T12:21:40;11.23;;;7.28;;
29352;SDS011;16344;50.364;8.944;2023-04-07T12:24:07;10.45;;;6.35;;
29352;SDS011;16344;50.364;8.944;2023-04-07T12:26:33;7.75;;;5.53;;
29352;SDS011;16344;50.364;8.944;2023-04-07T12:28:58;9.10;;;6.50;;
29352;SDS011;16344;50.364;8.944;2023-04-07T12:31:29;9.45;;;6.38;;
29352;SDS011;16344;50.364;8.944;2023-04-07T12:33:56;8.10;;;6.07;;
29352;SDS011;16344;50.364;8.944;2023-04-07T12:36:22;9.65;;;6.50;;
29352;SDS011;16344;50.364;8.944;2023-04-07T12:38:48;9.85;;;7.20;;
29352;SDS011;16344;50.364;8.944;2023-04-07T12:41:14;10.32;;;6.05;;
29352;SDS011;16344;50.364;8.944;2023-04-07T12:43:39;10.95;;;7.03;;
29352;SDS011;16344;50.364;8.944;2023-04-07T12:46:05;8.55;;;6.38;;
29352;SDS011;16344;50.364;8.944;2023-04-07T12:48:30;23.45;;;10.40;;
29352;SDS011;16344;50.364;8.944;2023-04-07T12:50:56;24.67;;;11.93;;
29352;SDS011;16344;50.364;8.944;2023-04-07T12:53:22;20.50;;;11.23;;
29352;SDS011;16344;50.364;8.944;2023-04-07T12:55:47;25.40;;;14.93;;
29352;SDS011;16344;50.364;8.944;2023-04-07T12:58:13;11.23;;;7.15;;
29352;SDS011;16344;50.364;8.944;2023-04-07T13:00:38;13.27;;;8.68;;
29352;SDS011;16344;50.364;8.944;2023-04-07T13:03:05;11.55;;;7.45;;
29352;SDS011;16344;50.364;8.944;2023-04-07T13:05:31;9.98;;;7.70;;
29352;SDS011;16344;50.364;8.944;2023-04-07T13:07:56;13.88;;;9.27;;
29352;SDS011;16344;50.364;8.944;2023-04-07T13:10:22;16.88;;;7.60;;
29352;SDS011;16344;50.364;8.944;2023-04-07T13:12:47;10.10;;;7.07;;
29352;SDS011;16344;50.364;8.944;2023-04-07T13:15:13;11.05;;;6.38;;
29352;SDS011;16344;50.364;8.944;2023-04-07T13:17:38;9.90;;;5.63;;
29352;SDS011;16344;50.364;8.944;2023-04-07T13:20:04;7.65;;;5.07;;
29352;SDS011;16344;50.364;8.944;2023-04-07T13:22:31;5.60;;;4.47;;
29352;SDS011;16344;50.364;8.944;2023-04-07T13:24:56;9.20;;;4.68;;
29352;SDS011;16344;50.364;8.944;2023-04-07T13:27:22;7.53;;;4.78;;
29352;SDS011;16344;50.364;8.944;2023-04-07T13:29:47;6.43;;;4.90;;
29352;SDS011;16344;50.364;8.944;2023-04-07T13:32:13;8.05;;;4.93;;
29352;SDS011;16344;50.364;8.944;2023-04-07T13:34:39;9.05;;;5.28;;
29352;SDS011;16344;50.364;8.944;2023-04-07T13:37:05;6.60;;;4.20;;
29352;SDS011;16344;50.364;8.944;2023-04-07T13:39:31;7.25;;;5.00;;
29352;SDS011;16344;50.364;8.944;2023-04-07T13:41:57;7.85;;;5.05;;
29352;SDS011;16344;50.364;8.944;2023-04-07T13:44:23;23.63;;;12.57;;
29352;SDS011;16344;50.364;8.944;2023-04-07T13:46:52;14.43;;;7.45;;
29352;SDS011;16344;50.364;8.944;2023-04-07T13:49:19;5.57;;;4.07;;
29352;SDS011;16344;50.364;8.944;2023-04-07T13:51:45;6.43;;;3.17;;
29352;SDS011;16344;50.364;8.944;2023-04-07T13:54:11;6.32;;;3.75;;
29352;SDS011;16344;50.364;8.944;2023-04-07T13:56:36;5.63;;;3.70;;
29352;SDS011;16344;50.364;8.944;2023-04-07T13:59:05;4.22;;;3.10;;
29352;SDS011;16344;50.364;8.944;2023-04-07T14:01:31;5.70;;;3.45;;
29352;SDS011;16344;50.364;8.944;2023-04-07T14:03:57;4.22;;;3.03;;
29352;SDS011;16344;50.364;8.944;2023-04-07T14:06:23;4.70;;;3.10;;
29352;SDS011;16344;50.364;8.944;2023-04-07T14:08:50;5.13;;;3.90;;
29352;SDS011;16344;50.364;8.944;2023-04-07T14:11:19;4.65;;;3.65;;
29352;SDS011;16344;50.364;8.944;2023-04-07T14:13:48;5.97;;;3.63;;
29352;SDS011;16344;50.364;8.944;2023-04-07T14:16:15;4.47;;;3.40;;
29352;SDS011;16344;50.364;8.944;2023-04-07T14:18:41;6.10;;;3.92;;
29352;SDS011;16344;50.364;8.944;2023-04-07T14:21:07;3.88;;;3.15;;
29352;SDS011;16344;50.364;8.944;2023-04-07T14:23:32;5.93;;;4.15;;
29352;SDS011;16344;50.364;8.944;2023-04-07T14:25:58;5.57;;;3.58;;
29352;SDS011;16344;50.364;8.944;2023-04-07T14:28:23;3.95;;;3.55;;
29352;SDS011;16344;50.364;8.944;2023-04-07T14:30:51;4.80;;;3.78;;
29352;SDS011;16344;50.364;8.944;2023-04-07T14:33:16;6.93;;;3.63;;
29352;SDS011;16344;50.364;8.944;2023-04-07T14:35:42;5.88;;;3.80;;
29352;SDS011;16344;50.364;8.944;2023-04-07T14:38:08;4.57;;;3.10;;